sensor_id;sensor_type;location;lat;lon;timestamp;temperature;humidity
6357;DHT22;3211;53.452;-2.264;2023-02-28T00:02:45;7.70;99.90
6357;DHT22;3211;53.452;-2.264;2023-02-28T00:05:31;7.60;99.90
6357;DHT22;3211;53.452;-2.264;2023-02-28T00:08:17;7.70;99.90
6357;DHT22;3211;53.452;-2.264;2023-02-28T00:10:44;7.70;99.90
6357;DHT22;3211;53.452;-2.264;2023-02-28T00:13:11;7.70;99.90
6357;DHT22;3211;53.452;-2.264;2023-02-28T00:15:40;7.60;99.90
6357;DHT22;3211;53.452;-2.264;2023-02-28T00:18:07;7.60;99.90
6357;DHT22;3211;53.452;-2.264;2023-02-28T00:20:34;7.60;99.90
6357;DHT22;3211;53.452;-2.264;2023-02-28T00:23:00;7.50;99.90
6357;DHT22;3211;53.452;-2.264;2023-02-28T00:25:27;7.60;99.90
6357;DHT22;3211;53.452;-2.264;2023-02-28T00:27:54;7.50;99.90
6357;DHT22;3211;53.452;-2.264;2023-02-28T00:30:22;7.60;99.90
6357;DHT22;3211;53.452;-2.264;2023-02-28T00:32:51;7.60;99.90
6357;DHT22;3211;53.452;-2.264;2023-02-28T00:35:18;7.60;99.90
6357;DHT22;3211;53.452;-2.264;2023-02-28T00:37:45;7.50;99.90
6357;DHT22;3211;53.452;-2.264;2023-02-28T00:40:12;7.50;99.90
6357;DHT22;3211;53.452;-2.264;2023-02-28T00:42:39;7.50;99.90
6357;DHT22;3211;53.452;-2.264;2023-02-28T00:45:07;7.50;99.90
6357;DHT22;3211;53.452;-2.264;2023-02-28T00:47:34;7.50;99.90
6357;DHT22;3211;53.452;-2.264;2023-02-28T00:50:03;7.40;99.90
6357;DHT22;3211;53.452;-2.264;2023-02-28T00:52:31;7.40;99.90
6357;DHT22;3211;53.452;-2.264;2023-02-28T00:54:58;7.40;99.90
6357;DHT22;3211;53.452;-2.264;2023-02-28T00:57:25;7.30;99.90
6357;DHT22;3211;53.452;-2.264;2023-02-28T00:59:52;7.40;99.90
6357;DHT22;3211;53.452;-2.264;2023-02-28T01:02:20;7.40;99.90
6357;DHT22;3211;53.452;-2.264;2023-02-28T01:04:47;7.40;99.90
6357;DHT22;3211;53.452;-2.264;2023-02-28T01:07:15;7.50;99.90
6357;DHT22;3211;53.452;-2.264;2023-02-28T01:09:42;7.40;99.90
6357;DHT22;3211;53.452;-2.264;2023-02-28T01:12:09;7.40;99.90
6357;DHT22;3211;53.452;-2.264;2023-02-28T01:14:36;7.30;99.90
6357;DHT22;3211;53.452;-2.264;2023-02-28T01:17:03;7.30;99.90
6357;DHT22;3211;53.452;-2.264;2023-02-28T01:19:30;7.40;99.90
6357;DHT22;3211;53.452;-2.264;2023-02-28T01:21:59;7.30;99.90
6357;DHT22;3211;53.452;-2.264;2023-02-28T01:24:28;7.30;99.90
6357;DHT22;3211;53.452;-2.264;2023-02-28T01:26:55;7.30;99.90
6357;DHT22;3211;53.452;-2.264;2023-02-28T01:29:22;7.30;99.90
6357;DHT22;3211;53.452;-2.264;2023-02-28T01:31:49;7.40;99.90
6357;DHT22;3211;53.452;-2.264;2023-02-28T01:34:16;7.40;99.90
6357;DHT22;3211;53.452;-2.264;2023-02-28T01:36:44;7.30;99.90
6357;DHT22;3211;53.452;-2.264;2023-02-28T01:39:11;7.30;99.90
6357;DHT22;3211;53.452;-2.264;2023-02-28T01:41:40;7.30;99.90
6357;DHT22;3211;53.452;-2.264;2023-02-28T01:47:08;7.30;99.90
6357;DHT22;3211;53.452;-2.264;2023-02-28T01:49:35;7.30;99.90
6357;DHT22;3211;53.452;-2.264;2023-02-28T01:52:03;7.30;99.90
6357;DHT22;3211;53.452;-2.264;2023-02-28T01:54:32;7.30;99.90
6357;DHT22;3211;53.452;-2.264;2023-02-28T01:57:03;7.30;99.90
6357;DHT22;3211;53.452;-2.264;2023-02-28T01:59:35;7.20;99.90
6357;DHT22;3211;53.452;-2.264;2023-02-28T02:02:04;7.10;99.90
6357;DHT22;3211;53.452;-2.264;2023-02-28T02:04:38;7.20;99.90
6357;DHT22;3211;53.452;-2.264;2023-02-28T02:07:07;7.10;99.90
6357;DHT22;3211;53.452;-2.264;2023-02-28T02:09:34;7.10;99.90
6357;DHT22;3211;53.452;-2.264;2023-02-28T02:12:09;7.10;99.90
6357;DHT22;3211;53.452;-2.264;2023-02-28T02:14:48;7.10;99.90
6357;DHT22;3211;53.452;-2.264;2023-02-28T02:17:26;7.00;99.90
6357;DHT22;3211;53.452;-2.264;2023-02-28T02:26:23;7.00;99.90
6357;DHT22;3211;53.452;-2.264;2023-02-28T02:29:23;7.00;99.90
6357;DHT22;3211;53.452;-2.264;2023-02-28T02:32:13;6.90;99.90
6357;DHT22;3211;53.452;-2.264;2023-02-28T02:34:58;6.90;99.90
6357;DHT22;3211;53.452;-2.264;2023-02-28T02:37:35;7.10;99.90
6357;DHT22;3211;53.452;-2.264;2023-02-28T02:40:11;6.90;99.90
6357;DHT22;3211;53.452;-2.264;2023-02-28T02:42:44;6.90;99.90
6357;DHT22;3211;53.452;-2.264;2023-02-28T02:45:17;6.90;99.90
6357;DHT22;3211;53.452;-2.264;2023-02-28T02:47:46;7.00;99.90
6357;DHT22;3211;53.452;-2.264;2023-02-28T02:50:18;7.00;99.90
6357;DHT22;3211;53.452;-2.264;2023-02-28T02:52:50;6.90;99.90
6357;DHT22;3211;53.452;-2.264;2023-02-28T02:55:19;6.90;99.90
6357;DHT22;3211;53.452;-2.264;2023-02-28T02:57:49;6.90;99.90
6357;DHT22;3211;53.452;-2.264;2023-02-28T03:00:23;7.10;99.90
6357;DHT22;3211;53.452;-2.264;2023-02-28T03:02:51;7.00;99.90
6357;DHT22;3211;53.452;-2.264;2023-02-28T03:05:25;6.90;99.90
6357;DHT22;3211;53.452;-2.264;2023-02-28T03:07:52;6.90;99.90
6357;DHT22;3211;53.452;-2.264;2023-02-28T03:10:29;6.80;99.90
6357;DHT22;3211;53.452;-2.264;2023-02-28T03:13:05;6.80;99.90
6357;DHT22;3211;53.452;-2.264;2023-02-28T03:15:45;6.80;99.90
6357;DHT22;3211;53.452;-2.264;2023-02-28T03:18:22;6.80;99.90
6357;DHT22;3211;53.452;-2.264;2023-02-28T03:20:59;6.80;99.90
6357;DHT22;3211;53.452;-2.264;2023-02-28T03:23:34;6.80;99.90
6357;DHT22;3211;53.452;-2.264;2023-02-28T03:26:11;6.80;99.90
6357;DHT22;3211;53.452;-2.264;2023-02-28T03:28:44;6.80;99.90
6357;DHT22;3211;53.452;-2.264;2023-02-28T03:31:16;6.80;99.90
6357;DHT22;3211;53.452;-2.264;2023-02-28T03:33:49;6.80;99.90
6357;DHT22;3211;53.452;-2.264;2023-02-28T03:36:24;6.90;99.90
6357;DHT22;3211;53.452;-2.264;2023-02-28T03:38:56;6.90;99.90
6357;DHT22;3211;53.452;-2.264;2023-02-28T03:41:31;6.90;99.90
6357;DHT22;3211;53.452;-2.264;2023-02-28T03:44:04;6.90;99.90
6357;DHT22;3211;53.452;-2.264;2023-02-28T03:46:37;6.90;99.90
6357;DHT22;3211;53.452;-2.264;2023-02-28T03:49:08;6.80;99.90
6357;DHT22;3211;53.452;-2.264;2023-02-28T03:51:40;6.80;99.90
6357;DHT22;3211;53.452;-2.264;2023-02-28T03:54:11;6.80;99.90
6357;DHT22;3211;53.452;-2.264;2023-02-28T03:56:44;6.70;99.90
6357;DHT22;3211;53.452;-2.264;2023-02-28T03:59:17;6.70;99.90
6357;DHT22;3211;53.452;-2.264;2023-02-28T04:01:47;6.70;99.90
6357;DHT22;3211;53.452;-2.264;2023-02-28T04:04:15;6.70;99.90
6357;DHT22;3211;53.452;-2.264;2023-02-28T04:06:45;6.70;99.90
6357;DHT22;3211;53.452;-2.264;2023-02-28T04:09:13;6.70;99.90
6357;DHT22;3211;53.452;-2.264;2023-02-28T04:11:42;6.70;99.90
6357;DHT22;3211;53.452;-2.264;2023-02-28T04:14:11;6.70;99.90
6357;DHT22;3211;53.452;-2.264;2023-02-28T04:16:39;6.70;99.90
6357;DHT22;3211;53.452;-2.264;2023-02-28T04:19:08;6.60;99.90
6357;DHT22;3211;53.452;-2.264;2023-02-28T04:21:37;6.60;99.90
6357;DHT22;3211;53.452;-2.264;2023-02-28T04:24:07;6.60;99.90
6357;DHT22;3211;53.452;-2.264;2023-02-28T04:26:36;6.60;99.90
6357;DHT22;3211;53.452;-2.264;2023-02-28T04:29:04;6.60;99.90
6357;DHT22;3211;53.452;-2.264;2023-02-28T04:31:31;6.60;99.90
6357;DHT22;3211;53.452;-2.264;2023-02-28T04:33:58;6.60;99.90
6357;DHT22;3211;53.452;-2.264;2023-02-28T04:36:25;6.40;99.90
6357;DHT22;3211;53.452;-2.264;2023-02-28T04:38:52;6.40;99.90
6357;DHT22;3211;53.452;-2.264;2023-02-28T04:41:21;6.40;99.90
6357;DHT22;3211;53.452;-2.264;2023-02-28T04:43:48;6.50;99.90
6357;DHT22;3211;53.452;-2.264;2023-02-28T04:46:15;6.40;99.90
6357;DHT22;3211;53.452;-2.264;2023-02-28T04:48:44;6.50;99.90
6357;DHT22;3211;53.452;-2.264;2023-02-28T04:51:12;6.40;99.90
6357;DHT22;3211;53.452;-2.264;2023-02-28T04:53:41;6.50;99.90
6357;DHT22;3211;53.452;-2.264;2023-02-28T04:56:11;6.50;99.90
6357;DHT22;3211;53.452;-2.264;2023-02-28T04:58:40;6.40;99.90
6357;DHT22;3211;53.452;-2.264;2023-02-28T05:01:16;6.40;99.90
6357;DHT22;3211;53.452;-2.264;2023-02-28T05:03:44;6.50;99.90
6357;DHT22;3211;53.452;-2.264;2023-02-28T05:06:12;6.50;99.90
6357;DHT22;3211;53.452;-2.264;2023-02-28T05:08:39;6.50;99.90
6357;DHT22;3211;53.452;-2.264;2023-02-28T05:11:15;6.50;99.90
6357;DHT22;3211;53.452;-2.264;2023-02-28T05:13:44;6.60;99.90
6357;DHT22;3211;53.452;-2.264;2023-02-28T05:16:12;6.50;99.90
6357;DHT22;3211;53.452;-2.264;2023-02-28T05:18:38;6.50;99.90
6357;DHT22;3211;53.452;-2.264;2023-02-28T05:21:05;6.60;99.90
6357;DHT22;3211;53.452;-2.264;2023-02-28T05:23:32;6.60;99.90
6357;DHT22;3211;53.452;-2.264;2023-02-28T05:25:59;6.60;99.90
6357;DHT22;3211;53.452;-2.264;2023-02-28T05:28:26;6.70;99.90
6357;DHT22;3211;53.452;-2.264;2023-02-28T05:30:55;6.60;99.90
6357;DHT22;3211;53.452;-2.264;2023-02-28T05:33:22;6.60;99.90
6357;DHT22;3211;53.452;-2.264;2023-02-28T05:35:48;6.60;99.90
6357;DHT22;3211;53.452;-2.264;2023-02-28T05:38:15;6.50;99.90
6357;DHT22;3211;53.452;-2.264;2023-02-28T05:40:43;6.40;99.90
6357;DHT22;3211;53.452;-2.264;2023-02-28T05:43:11;6.40;99.90
6357;DHT22;3211;53.452;-2.264;2023-02-28T05:45:38;6.50;99.90
6357;DHT22;3211;53.452;-2.264;2023-02-28T05:48:07;6.40;99.90
6357;DHT22;3211;53.452;-2.264;2023-02-28T05:50:34;6.30;99.90
6357;DHT22;3211;53.452;-2.264;2023-02-28T05:53:01;6.30;99.90
6357;DHT22;3211;53.452;-2.264;2023-02-28T05:55:28;6.30;99.90
6357;DHT22;3211;53.452;-2.264;2023-02-28T05:57:55;6.30;99.90
6357;DHT22;3211;53.452;-2.264;2023-02-28T06:00:22;6.50;99.90
6357;DHT22;3211;53.452;-2.264;2023-02-28T06:03:09;6.50;99.90
6357;DHT22;3211;53.452;-2.264;2023-02-28T06:05:39;6.60;99.90
6357;DHT22;3211;53.452;-2.264;2023-02-28T06:08:06;6.40;99.90
6357;DHT22;3211;53.452;-2.264;2023-02-28T06:10:33;6.50;99.90
6357;DHT22;3211;53.452;-2.264;2023-02-28T06:13:00;6.40;99.90
6357;DHT22;3211;53.452;-2.264;2023-02-28T06:15:28;6.40;99.90
6357;DHT22;3211;53.452;-2.264;2023-02-28T06:17:56;6.40;99.90
6357;DHT22;3211;53.452;-2.264;2023-02-28T06:20:26;6.50;99.90
6357;DHT22;3211;53.452;-2.264;2023-02-28T06:22:55;6.50;99.90
6357;DHT22;3211;53.452;-2.264;2023-02-28T06:25:24;6.50;99.90
6357;DHT22;3211;53.452;-2.264;2023-02-28T06:27:51;6.50;99.90
6357;DHT22;3211;53.452;-2.264;2023-02-28T06:30:18;6.50;99.90
6357;DHT22;3211;53.452;-2.264;2023-02-28T06:32:49;6.50;99.90
6357;DHT22;3211;53.452;-2.264;2023-02-28T06:35:16;6.50;99.90
6357;DHT22;3211;53.452;-2.264;2023-02-28T06:37:44;6.50;99.90
6357;DHT22;3211;53.452;-2.264;2023-02-28T06:40:13;6.40;99.90
6357;DHT22;3211;53.452;-2.264;2023-02-28T06:42:40;6.30;99.90
6357;DHT22;3211;53.452;-2.264;2023-02-28T06:45:08;6.40;99.90
6357;DHT22;3211;53.452;-2.264;2023-02-28T06:47:35;6.30;99.90
6357;DHT22;3211;53.452;-2.264;2023-02-28T06:50:03;6.40;99.90
6357;DHT22;3211;53.452;-2.264;2023-02-28T06:52:30;6.40;99.90
6357;DHT22;3211;53.452;-2.264;2023-02-28T06:54:58;6.40;99.90
6357;DHT22;3211;53.452;-2.264;2023-02-28T06:57:28;6.40;99.90
6357;DHT22;3211;53.452;-2.264;2023-02-28T06:59:57;6.50;99.90
6357;DHT22;3211;53.452;-2.264;2023-02-28T07:02:23;6.40;99.90
6357;DHT22;3211;53.452;-2.264;2023-02-28T07:04:51;6.40;99.90
6357;DHT22;3211;53.452;-2.264;2023-02-28T07:07:18;6.50;99.90
6357;DHT22;3211;53.452;-2.264;2023-02-28T07:09:44;6.40;99.90
6357;DHT22;3211;53.452;-2.264;2023-02-28T07:12:13;6.50;99.90
6357;DHT22;3211;53.452;-2.264;2023-02-28T07:14:40;6.40;99.90
6357;DHT22;3211;53.452;-2.264;2023-02-28T07:17:07;6.50;99.90
6357;DHT22;3211;53.452;-2.264;2023-02-28T07:19:36;6.60;99.90
6357;DHT22;3211;53.452;-2.264;2023-02-28T07:22:03;6.50;99.90
6357;DHT22;3211;53.452;-2.264;2023-02-28T07:24:30;6.50;99.90
6357;DHT22;3211;53.452;-2.264;2023-02-28T07:26:57;6.50;99.90
6357;DHT22;3211;53.452;-2.264;2023-02-28T07:29:26;6.50;99.90
6357;DHT22;3211;53.452;-2.264;2023-02-28T07:31:53;6.50;99.90
6357;DHT22;3211;53.452;-2.264;2023-02-28T07:34:20;6.50;99.90
6357;DHT22;3211;53.452;-2.264;2023-02-28T07:36:47;6.60;99.90
6357;DHT22;3211;53.452;-2.264;2023-02-28T07:39:19;6.60;99.90
6357;DHT22;3211;53.452;-2.264;2023-02-28T07:41:46;6.60;99.90
6357;DHT22;3211;53.452;-2.264;2023-02-28T07:44:13;6.60;99.90
6357;DHT22;3211;53.452;-2.264;2023-02-28T07:46:41;6.60;99.90
6357;DHT22;3211;53.452;-2.264;2023-02-28T07:49:08;6.60;99.90
6357;DHT22;3211;53.452;-2.264;2023-02-28T07:51:35;6.70;99.90
6357;DHT22;3211;53.452;-2.264;2023-02-28T07:54:02;6.70;99.90
6357;DHT22;3211;53.452;-2.264;2023-02-28T07:56:29;6.70;99.90
6357;DHT22;3211;53.452;-2.264;2023-02-28T07:58:56;6.60;99.90
6357;DHT22;3211;53.452;-2.264;2023-02-28T08:01:23;6.60;99.90
6357;DHT22;3211;53.452;-2.264;2023-02-28T08:03:51;6.70;99.90
6357;DHT22;3211;53.452;-2.264;2023-02-28T08:06:21;6.70;99.90
6357;DHT22;3211;53.452;-2.264;2023-02-28T08:08:49;6.80;99.90
6357;DHT22;3211;53.452;-2.264;2023-02-28T08:11:17;6.80;99.90
6357;DHT22;3211;53.452;-2.264;2023-02-28T08:13:45;6.80;99.90
6357;DHT22;3211;53.452;-2.264;2023-02-28T08:16:13;6.70;99.90
6357;DHT22;3211;53.452;-2.264;2023-02-28T08:18:43;6.80;99.90
6357;DHT22;3211;53.452;-2.264;2023-02-28T08:21:11;6.90;99.90
6357;DHT22;3211;53.452;-2.264;2023-02-28T08:23:41;7.00;99.90
6357;DHT22;3211;53.452;-2.264;2023-02-28T08:26:21;6.90;99.90
6357;DHT22;3211;53.452;-2.264;2023-02-28T08:28:52;6.90;99.90
6357;DHT22;3211;53.452;-2.264;2023-02-28T08:31:30;7.00;99.90
6357;DHT22;3211;53.452;-2.264;2023-02-28T08:34:08;7.10;99.90
6357;DHT22;3211;53.452;-2.264;2023-02-28T08:36:42;7.10;99.90
6357;DHT22;3211;53.452;-2.264;2023-02-28T08:39:16;7.20;99.90
6357;DHT22;3211;53.452;-2.264;2023-02-28T08:42:02;7.20;99.90
6357;DHT22;3211;53.452;-2.264;2023-02-28T08:44:41;7.30;99.90
6357;DHT22;3211;53.452;-2.264;2023-02-28T08:47:17;7.30;99.90
6357;DHT22;3211;53.452;-2.264;2023-02-28T08:49:47;7.50;99.90
6357;DHT22;3211;53.452;-2.264;2023-02-28T08:52:22;7.50;99.90
6357;DHT22;3211;53.452;-2.264;2023-02-28T08:54:56;7.60;99.90
6357;DHT22;3211;53.452;-2.264;2023-02-28T08:57:46;7.70;99.90
6357;DHT22;3211;53.452;-2.264;2023-02-28T09:00:18;7.70;99.90
6357;DHT22;3211;53.452;-2.264;2023-02-28T09:02:58;7.70;99.90
6357;DHT22;3211;53.452;-2.264;2023-02-28T09:05:51;7.60;99.90
6357;DHT22;3211;53.452;-2.264;2023-02-28T09:08:20;7.70;99.90
6357;DHT22;3211;53.452;-2.264;2023-02-28T09:10:48;7.80;99.90
6357;DHT22;3211;53.452;-2.264;2023-02-28T09:13:27;7.80;99.90
6357;DHT22;3211;53.452;-2.264;2023-02-28T09:16:06;7.80;99.90
6357;DHT22;3211;53.452;-2.264;2023-02-28T09:18:57;7.70;99.90
6357;DHT22;3211;53.452;-2.264;2023-02-28T09:21:36;7.80;99.90
6357;DHT22;3211;53.452;-2.264;2023-02-28T09:24:10;7.90;99.90
6357;DHT22;3211;53.452;-2.264;2023-02-28T09:26:41;8.00;99.90
6357;DHT22;3211;53.452;-2.264;2023-02-28T09:29:12;8.10;99.90
6357;DHT22;3211;53.452;-2.264;2023-02-28T09:31:53;8.10;97.60
6357;DHT22;3211;53.452;-2.264;2023-02-28T09:34:34;8.00;93.40
6357;DHT22;3211;53.452;-2.264;2023-02-28T09:37:31;8.10;92.50
6357;DHT22;3211;53.452;-2.264;2023-02-28T09:40:03;8.10;92.40
6357;DHT22;3211;53.452;-2.264;2023-02-28T09:42:34;8.20;92.90
6357;DHT22;3211;53.452;-2.264;2023-02-28T09:45:25;8.40;96.20
6357;DHT22;3211;53.452;-2.264;2023-02-28T09:48:03;8.30;87.50
6357;DHT22;3211;53.452;-2.264;2023-02-28T09:50:40;8.30;93.00
6357;DHT22;3211;53.452;-2.264;2023-02-28T09:53:15;8.40;93.80
6357;DHT22;3211;53.452;-2.264;2023-02-28T09:55:53;8.40;90.30
6357;DHT22;3211;53.452;-2.264;2023-02-28T09:58:28;8.60;92.30
6357;DHT22;3211;53.452;-2.264;2023-02-28T10:01:02;8.80;88.90
6357;DHT22;3211;53.452;-2.264;2023-02-28T10:03:39;8.90;84.30
6357;DHT22;3211;53.452;-2.264;2023-02-28T10:06:22;9.00;79.90
6357;DHT22;3211;53.452;-2.264;2023-02-28T10:09:00;9.00;69.30
6357;DHT22;3211;53.452;-2.264;2023-02-28T10:11:35;9.20;73.40
6357;DHT22;3211;53.452;-2.264;2023-02-28T10:14:12;9.10;71.10
6357;DHT22;3211;53.452;-2.264;2023-02-28T10:16:46;9.10;66.80
6357;DHT22;3211;53.452;-2.264;2023-02-28T10:19:23;9.20;71.20
6357;DHT22;3211;53.452;-2.264;2023-02-28T10:22:05;9.20;67.90
6357;DHT22;3211;53.452;-2.264;2023-02-28T10:24:42;9.30;63.80
6357;DHT22;3211;53.452;-2.264;2023-02-28T10:27:32;9.20;56.50
6357;DHT22;3211;53.452;-2.264;2023-02-28T10:30:02;9.50;66.60
6357;DHT22;3211;53.452;-2.264;2023-02-28T10:32:32;9.60;57.20
6357;DHT22;3211;53.452;-2.264;2023-02-28T10:35:14;9.50;52.80
6357;DHT22;3211;53.452;-2.264;2023-02-28T10:37:47;9.20;55.00
6357;DHT22;3211;53.452;-2.264;2023-02-28T10:40:35;9.00;57.30
6357;DHT22;3211;53.452;-2.264;2023-02-28T10:43:21;8.80;59.20
6357;DHT22;3211;53.452;-2.264;2023-02-28T10:46:01;8.80;62.70
6357;DHT22;3211;53.452;-2.264;2023-02-28T10:48:33;8.80;57.50
6357;DHT22;3211;53.452;-2.264;2023-02-28T10:51:05;8.80;59.70
6357;DHT22;3211;53.452;-2.264;2023-02-28T10:53:38;8.90;58.60
6357;DHT22;3211;53.452;-2.264;2023-02-28T10:56:18;9.00;54.90
6357;DHT22;3211;53.452;-2.264;2023-02-28T10:58:58;9.00;49.50
6357;DHT22;3211;53.452;-2.264;2023-02-28T11:02:00;9.10;53.10
6357;DHT22;3211;53.452;-2.264;2023-02-28T11:04:42;8.90;51.00
6357;DHT22;3211;53.452;-2.264;2023-02-28T11:07:18;8.80;51.60
6357;DHT22;3211;53.452;-2.264;2023-02-28T11:09:48;8.80;53.00
6357;DHT22;3211;53.452;-2.264;2023-02-28T11:12:23;8.80;53.30
6357;DHT22;3211;53.452;-2.264;2023-02-28T11:14:59;8.70;47.70
6357;DHT22;3211;53.452;-2.264;2023-02-28T11:17:31;9.10;46.80
6357;DHT22;3211;53.452;-2.264;2023-02-28T11:20:06;9.90;37.20
6357;DHT22;3211;53.452;-2.264;2023-02-28T11:22:45;10.30;22.50
6357;DHT22;3211;53.452;-2.264;2023-02-28T11:25:25;10.80;20.90
6357;DHT22;3211;53.452;-2.264;2023-02-28T11:27:59;10.90;16.50
6357;DHT22;3211;53.452;-2.264;2023-02-28T11:30:34;10.50;14.50
6357;DHT22;3211;53.452;-2.264;2023-02-28T11:33:22;10.20;12.40
6357;DHT22;3211;53.452;-2.264;2023-02-28T11:36:01;10.80;15.00
6357;DHT22;3211;53.452;-2.264;2023-02-28T11:38:31;10.90;9.60
6357;DHT22;3211;53.452;-2.264;2023-02-28T11:44:27;10.60;6.50
6357;DHT22;3211;53.452;-2.264;2023-02-28T11:47:10;10.60;10.60
6357;DHT22;3211;53.452;-2.264;2023-02-28T11:49:49;10.40;19.50
6357;DHT22;3211;53.452;-2.264;2023-02-28T11:52:24;10.30;12.90
6357;DHT22;3211;53.452;-2.264;2023-02-28T11:55:08;10.10;17.50
6357;DHT22;3211;53.452;-2.264;2023-02-28T11:57:58;9.80;20.20
6357;DHT22;3211;53.452;-2.264;2023-02-28T12:01:01;9.60;23.80
6357;DHT22;3211;53.452;-2.264;2023-02-28T12:04:03;9.50;27.50
6357;DHT22;3211;53.452;-2.264;2023-02-28T12:06:36;9.40;29.10
6357;DHT22;3211;53.452;-2.264;2023-02-28T12:09:40;9.40;29.90
6357;DHT22;3211;53.452;-2.264;2023-02-28T12:12:21;9.30;33.00
6357;DHT22;3211;53.452;-2.264;2023-02-28T12:15:04;9.30;32.50
6357;DHT22;3211;53.452;-2.264;2023-02-28T12:17:42;9.20;31.90
6357;DHT22;3211;53.452;-2.264;2023-02-28T12:20:21;9.40;37.10
6357;DHT22;3211;53.452;-2.264;2023-02-28T12:22:59;9.40;31.70
6357;DHT22;3211;53.452;-2.264;2023-02-28T12:25:40;9.70;29.50
6357;DHT22;3211;53.452;-2.264;2023-02-28T12:28:12;9.70;34.90
6357;DHT22;3211;53.452;-2.264;2023-02-28T12:30:45;9.60;34.40
6357;DHT22;3211;53.452;-2.264;2023-02-28T12:33:17;9.50;36.30
6357;DHT22;3211;53.452;-2.264;2023-02-28T12:35:51;9.60;38.80
6357;DHT22;3211;53.452;-2.264;2023-02-28T12:38:22;9.60;36.50
6357;DHT22;3211;53.452;-2.264;2023-02-28T12:40:53;9.70;32.90
6357;DHT22;3211;53.452;-2.264;2023-02-28T12:43:24;10.00;29.80
6357;DHT22;3211;53.452;-2.264;2023-02-28T12:45:55;10.40;23.40
6357;DHT22;3211;53.452;-2.264;2023-02-28T12:48:27;10.50;22.90
6357;DHT22;3211;53.452;-2.264;2023-02-28T12:50:57;10.50;20.90
6357;DHT22;3211;53.452;-2.264;2023-02-28T12:53:28;10.60;22.80
6357;DHT22;3211;53.452;-2.264;2023-02-28T12:56:08;10.30;21.50
6357;DHT22;3211;53.452;-2.264;2023-02-28T12:58:40;10.10;25.40
6357;DHT22;3211;53.452;-2.264;2023-02-28T13:10:50;9.40;43.30
6357;DHT22;3211;53.452;-2.264;2023-02-28T13:13:21;9.30;47.10
6357;DHT22;3211;53.452;-2.264;2023-02-28T13:16:01;9.50;45.80
6357;DHT22;3211;53.452;-2.264;2023-02-28T13:18:31;9.40;42.70
6357;DHT22;3211;53.452;-2.264;2023-02-28T13:21:00;9.50;39.90
6357;DHT22;3211;53.452;-2.264;2023-02-28T13:23:55;9.50;44.60
6357;DHT22;3211;53.452;-2.264;2023-02-28T13:29:31;9.50;47.60
6357;DHT22;3211;53.452;-2.264;2023-02-28T13:35:36;9.40;40.70
6357;DHT22;3211;53.452;-2.264;2023-02-28T13:38:16;9.40;34.80
6357;DHT22;3211;53.452;-2.264;2023-02-28T13:40:43;9.50;35.00
6357;DHT22;3211;53.452;-2.264;2023-02-28T13:43:16;9.50;37.10
6357;DHT22;3211;53.452;-2.264;2023-02-28T13:46:06;9.40;35.40
6357;DHT22;3211;53.452;-2.264;2023-02-28T13:48:34;9.40;36.20
6357;DHT22;3211;53.452;-2.264;2023-02-28T13:54:31;9.20;43.10
6357;DHT22;3211;53.452;-2.264;2023-02-28T13:57:20;9.20;45.70
6357;DHT22;3211;53.452;-2.264;2023-02-28T14:00:01;9.10;45.20
6357;DHT22;3211;53.452;-2.264;2023-02-28T14:02:45;9.20;44.30
6357;DHT22;3211;53.452;-2.264;2023-02-28T14:05:15;9.10;43.40
6357;DHT22;3211;53.452;-2.264;2023-02-28T14:07:46;9.10;43.60
6357;DHT22;3211;53.452;-2.264;2023-02-28T14:10:23;9.00;41.80
6357;DHT22;3211;53.452;-2.264;2023-02-28T14:13:13;9.10;42.60
6357;DHT22;3211;53.452;-2.264;2023-02-28T14:15:55;9.20;40.50
6357;DHT22;3211;53.452;-2.264;2023-02-28T14:18:27;9.20;39.90
6357;DHT22;3211;53.452;-2.264;2023-02-28T14:20:59;9.10;39.90
6357;DHT22;3211;53.452;-2.264;2023-02-28T14:26:32;8.80;41.30
6357;DHT22;3211;53.452;-2.264;2023-02-28T14:29:14;8.90;45.10
6357;DHT22;3211;53.452;-2.264;2023-02-28T14:31:54;8.90;46.20
6357;DHT22;3211;53.452;-2.264;2023-02-28T14:34:35;9.00;39.20
6357;DHT22;3211;53.452;-2.264;2023-02-28T14:37:04;9.10;44.90
6357;DHT22;3211;53.452;-2.264;2023-02-28T14:39:33;9.00;42.10
6357;DHT22;3211;53.452;-2.264;2023-02-28T14:42:02;9.10;38.60
6357;DHT22;3211;53.452;-2.264;2023-02-28T14:44:30;9.20;41.60
6357;DHT22;3211;53.452;-2.264;2023-02-28T14:47:01;9.20;33.20
6357;DHT22;3211;53.452;-2.264;2023-02-28T14:49:34;9.20;35.70
6357;DHT22;3211;53.452;-2.264;2023-02-28T14:52:05;9.20;34.30
6357;DHT22;3211;53.452;-2.264;2023-02-28T14:54:35;9.10;32.80
6357;DHT22;3211;53.452;-2.264;2023-02-28T14:57:02;9.10;36.60
6357;DHT22;3211;53.452;-2.264;2023-02-28T14:59:31;8.90;42.30
6357;DHT22;3211;53.452;-2.264;2023-02-28T15:02:24;8.70;50.60
6357;DHT22;3211;53.452;-2.264;2023-02-28T15:04:56;8.70;61.30
6357;DHT22;3211;53.452;-2.264;2023-02-28T15:07:23;8.70;59.70
6357;DHT22;3211;53.452;-2.264;2023-02-28T15:10:13;8.70;56.80
6357;DHT22;3211;53.452;-2.264;2023-02-28T15:12:48;8.80;54.90
6357;DHT22;3211;53.452;-2.264;2023-02-28T15:15:17;8.90;51.70
6357;DHT22;3211;53.452;-2.264;2023-02-28T15:17:50;8.90;52.20
6357;DHT22;3211;53.452;-2.264;2023-02-28T15:20:19;9.00;51.70
6357;DHT22;3211;53.452;-2.264;2023-02-28T15:22:47;9.00;51.30
6357;DHT22;3211;53.452;-2.264;2023-02-28T15:25:19;8.90;47.40
6357;DHT22;3211;53.452;-2.264;2023-02-28T15:27:48;8.90;44.30
6357;DHT22;3211;53.452;-2.264;2023-02-28T15:30:18;8.90;44.20
6357;DHT22;3211;53.452;-2.264;2023-02-28T15:33:03;8.90;41.50
6357;DHT22;3211;53.452;-2.264;2023-02-28T15:35:32;8.90;36.40
6357;DHT22;3211;53.452;-2.264;2023-02-28T15:38:02;9.00;34.50
6357;DHT22;3211;53.452;-2.264;2023-02-28T15:40:33;9.00;34.90
6357;DHT22;3211;53.452;-2.264;2023-02-28T15:43:07;9.00;37.20
6357;DHT22;3211;53.452;-2.264;2023-02-28T15:45:44;9.00;40.20
6357;DHT22;3211;53.452;-2.264;2023-02-28T15:48:17;9.10;44.70
6357;DHT22;3211;53.452;-2.264;2023-02-28T15:50:48;9.10;40.20
6357;DHT22;3211;53.452;-2.264;2023-02-28T15:53:18;9.10;39.30
6357;DHT22;3211;53.452;-2.264;2023-02-28T15:55:55;9.10;41.50
6357;DHT22;3211;53.452;-2.264;2023-02-28T15:58:22;9.10;42.00
6357;DHT22;3211;53.452;-2.264;2023-02-28T16:01:06;9.00;38.50
6357;DHT22;3211;53.452;-2.264;2023-02-28T16:03:39;9.00;35.70
6357;DHT22;3211;53.452;-2.264;2023-02-28T16:06:26;9.10;37.80
6357;DHT22;3211;53.452;-2.264;2023-02-28T16:08:57;9.00;33.90
6357;DHT22;3211;53.452;-2.264;2023-02-28T16:11:24;9.10;39.30
6357;DHT22;3211;53.452;-2.264;2023-02-28T16:13:51;9.00;40.20
6357;DHT22;3211;53.452;-2.264;2023-02-28T16:16:21;9.00;43.60
6357;DHT22;3211;53.452;-2.264;2023-02-28T16:18:51;8.90;40.10
6357;DHT22;3211;53.452;-2.264;2023-02-28T16:21:18;8.90;40.30
6357;DHT22;3211;53.452;-2.264;2023-02-28T16:23:45;8.70;45.40
6357;DHT22;3211;53.452;-2.264;2023-02-28T16:26:18;8.60;46.00
6357;DHT22;3211;53.452;-2.264;2023-02-28T16:28:46;8.60;47.20
6357;DHT22;3211;53.452;-2.264;2023-02-28T16:31:13;8.70;49.90
6357;DHT22;3211;53.452;-2.264;2023-02-28T16:33:42;8.80;49.10
6357;DHT22;3211;53.452;-2.264;2023-02-28T16:36:13;8.90;44.60
6357;DHT22;3211;53.452;-2.264;2023-02-28T16:38:41;8.90;41.50
6357;DHT22;3211;53.452;-2.264;2023-02-28T16:41:12;9.00;38.80
6357;DHT22;3211;53.452;-2.264;2023-02-28T16:43:44;9.10;39.90
6357;DHT22;3211;53.452;-2.264;2023-02-28T16:46:11;9.00;40.60
6357;DHT22;3211;53.452;-2.264;2023-02-28T16:48:39;8.80;38.20
6357;DHT22;3211;53.452;-2.264;2023-02-28T16:51:13;8.80;37.60
6357;DHT22;3211;53.452;-2.264;2023-02-28T16:53:40;8.80;41.20
6357;DHT22;3211;53.452;-2.264;2023-02-28T16:56:13;8.90;44.80
6357;DHT22;3211;53.452;-2.264;2023-02-28T16:58:41;8.90;42.60
6357;DHT22;3211;53.452;-2.264;2023-02-28T17:01:08;9.00;44.60
6357;DHT22;3211;53.452;-2.264;2023-02-28T17:03:35;8.90;42.10
6357;DHT22;3211;53.452;-2.264;2023-02-28T17:06:03;8.90;44.50
6357;DHT22;3211;53.452;-2.264;2023-02-28T17:08:31;8.90;47.10
6357;DHT22;3211;53.452;-2.264;2023-02-28T17:10:58;8.70;44.90
6357;DHT22;3211;53.452;-2.264;2023-02-28T17:13:27;8.70;46.50